sensor_id;sensor_type;location;lat;lon;timestamp;P1;durP1;ratioP1;P2;durP2;ratioP2
74483;SDS011;62942;52.462;10.846;2022-09-09T00:00:26;11.2;;;16.2;;
74483;SDS011;62942;52.462;10.846;2022-09-09T00:01:37;11.2;;;19.3;;
74483;SDS011;62942;52.462;10.846;2022-09-09T00:02:48;10.7;;;16.2;;
74483;SDS011;62942;52.462;10.846;2022-09-09T00:03:57;10.3;;;16.5;;
74483;SDS011;62942;52.462;10.846;2022-09-09T00:04:58;10.3;;;16.6;;
74483;SDS011;62942;52.462;10.846;2022-09-09T00:06:07;9.7;;;15.9;;
74483;SDS011;62942;52.462;10.846;2022-09-09T00:07:09;9.5;;;15;;
74483;SDS011;62942;52.462;10.846;2022-09-09T00:08:18;9.4;;;13.1;;
74483;SDS011;62942;52.462;10.846;2022-09-09T00:09:27;8.5;;;12.7;;
74483;SDS011;62942;52.462;10.846;2022-09-09T00:10:37;8.4;;;13;;
74483;SDS011;62942;52.462;10.846;2022-09-09T00:11:39;8.4;;;13.8;;
74483;SDS011;62942;52.462;10.846;2022-09-09T00:12:36;7.3;;;11.1;;
74483;SDS011;62942;52.462;10.846;2022-09-09T00:13:37;7.5;;;10.6;;
74483;SDS011;62942;52.462;10.846;2022-09-09T00:14:37;6.9;;;9.9;;
74483;SDS011;62942;52.462;10.846;2022-09-09T00:15:48;6.7;;;10.3;;
74483;SDS011;62942;52.462;10.846;2022-09-09T00:16:58;6.7;;;10;;
74483;SDS011;62942;52.462;10.846;2022-09-09T00:17:56;6.5;;;9;;
74483;SDS011;62942;52.462;10.846;2022-09-09T00:19:07;6.2;;;11.8;;
74483;SDS011;62942;52.462;10.846;2022-09-09T00:20:09;5.7;;;8.7;;
74483;SDS011;62942;52.462;10.846;2022-09-09T00:21:17;5.5;;;9.2;;
74483;SDS011;62942;52.462;10.846;2022-09-09T00:22:27;5.5;;;9.3;;
74483;SDS011;62942;52.462;10.846;2022-09-09T00:23:37;5.7;;;9.4;;
74483;SDS011;62942;52.462;10.846;2022-09-09T00:24:38;5.7;;;8.6;;
74483;SDS011;62942;52.462;10.846;2022-09-09T00:25:47;5.1;;;7.4;;
74483;SDS011;62942;52.462;10.846;2022-09-09T00:26:47;5.2;;;8.9;;
74483;SDS011;62942;52.462;10.846;2022-09-09T00:27:56;5.1;;;7.9;;
74483;SDS011;62942;52.462;10.846;2022-09-09T00:29:10;4.9;;;8.2;;
74483;SDS011;62942;52.462;10.846;2022-09-09T00:30:17;4.9;;;9;;
74483;SDS011;62942;52.462;10.846;2022-09-09T00:31:18;4.8;;;7.6;;
74483;SDS011;62942;52.462;10.846;2022-09-09T00:32:28;4.7;;;7.3;;
74483;SDS011;62942;52.462;10.846;2022-09-09T00:33:36;4.6;;;6.6;;
74483;SDS011;62942;52.462;10.846;2022-09-09T00:34:36;4.7;;;7.8;;
74483;SDS011;62942;52.462;10.846;2022-09-09T00:35:47;4.6;;;9.7;;
74483;SDS011;62942;52.462;10.846;2022-09-09T00:36:46;4.4;;;8.1;;
74483;SDS011;62942;52.462;10.846;2022-09-09T00:37:56;4.5;;;6.6;;
74483;SDS011;62942;52.462;10.846;2022-09-09T00:39:08;4.2;;;7.4;;
74483;SDS011;62942;52.462;10.846;2022-09-09T00:40:08;4.2;;;7.1;;
74483;SDS011;62942;52.462;10.846;2022-09-09T00:41:18;4.1;;;7.1;;
74483;SDS011;62942;52.462;10.846;2022-09-09T00:42:26;4.2;;;7.2;;
74483;SDS011;62942;52.462;10.846;2022-09-09T00:43:36;4;;;6.7;;
74483;SDS011;62942;52.462;10.846;2022-09-09T00:44:36;3.8;;;6.4;;
74483;SDS011;62942;52.462;10.846;2022-09-09T00:45:54;3.8;;;6.4;;
74483;SDS011;62942;52.462;10.846;2022-09-09T00:46:58;4;;;6.2;;
74483;SDS011;62942;52.462;10.846;2022-09-09T00:48:06;3.9;;;6.5;;
74483;SDS011;62942;52.462;10.846;2022-09-09T00:49:08;4;;;6.1;;
74483;SDS011;62942;52.462;10.846;2022-09-09T00:50:10;3.8;;;6.2;;
74483;SDS011;62942;52.462;10.846;2022-09-09T00:51:17;3.9;;;7.2;;
74483;SDS011;62942;52.462;10.846;2022-09-09T00:52:28;4.2;;;7.3;;
74483;SDS011;62942;52.462;10.846;2022-09-09T00:53:38;3.8;;;6;;
74483;SDS011;62942;52.462;10.846;2022-09-09T00:54:38;3.8;;;5.6;;
74483;SDS011;62942;52.462;10.846;2022-09-09T00:55:38;3.9;;;8.1;;
74483;SDS011;62942;52.462;10.846;2022-09-09T00:56:47;3.7;;;6;;
74483;SDS011;62942;52.462;10.846;2022-09-09T00:57:56;3.8;;;6.6;;
74483;SDS011;62942;52.462;10.846;2022-09-09T00:59:07;4;;;6.3;;
74483;SDS011;62942;52.462;10.846;2022-09-09T01:00:17;4;;;6.7;;
74483;SDS011;62942;52.462;10.846;2022-09-09T01:01:16;4;;;6.6;;
74483;SDS011;62942;52.462;10.846;2022-09-09T01:02:19;3.9;;;7.6;;
74483;SDS011;62942;52.462;10.846;2022-09-09T01:03:29;3.7;;;5.9;;
74483;SDS011;62942;52.462;10.846;2022-09-09T01:04:27;3.9;;;6.9;;
74483;SDS011;62942;52.462;10.846;2022-09-09T01:05:27;3.8;;;6.4;;
74483;SDS011;62942;52.462;10.846;2022-09-09T01:06:36;3.5;;;6.5;;
74483;SDS011;62942;52.462;10.846;2022-09-09T01:07:47;3.6;;;7.2;;
74483;SDS011;62942;52.462;10.846;2022-09-09T01:09:00;3.3;;;5.9;;
74483;SDS011;62942;52.462;10.846;2022-09-09T01:09:56;3.5;;;6.3;;
74483;SDS011;62942;52.462;10.846;2022-09-09T01:11:06;3.4;;;5.4;;
74483;SDS011;62942;52.462;10.846;2022-09-09T01:12:16;3.3;;;8;;
74483;SDS011;62942;52.462;10.846;2022-09-09T01:13:27;3.3;;;5.4;;
74483;SDS011;62942;52.462;10.846;2022-09-09T01:14:29;3.2;;;4.8;;
74483;SDS011;62942;52.462;10.846;2022-09-09T01:15:36;3.3;;;6.1;;
74483;SDS011;62942;52.462;10.846;2022-09-09T01:16:36;3.4;;;7.4;;
74483;SDS011;62942;52.462;10.846;2022-09-09T01:17:39;3.3;;;5.8;;
74483;SDS011;62942;52.462;10.846;2022-09-09T01:18:46;3.3;;;5.9;;
74483;SDS011;62942;52.462;10.846;2022-09-09T01:19:59;3.3;;;4.7;;
74483;SDS011;62942;52.462;10.846;2022-09-09T01:21:08;3.4;;;5.2;;
74483;SDS011;62942;52.462;10.846;2022-09-09T01:22:18;3.1;;;6;;
74483;SDS011;62942;52.462;10.846;2022-09-09T01:23:30;3.1;;;6.5;;
74483;SDS011;62942;52.462;10.846;2022-09-09T01:24:27;3.1;;;4.8;;
74483;SDS011;62942;52.462;10.846;2022-09-09T01:25:56;3.1;;;5.2;;
74483;SDS011;62942;52.462;10.846;2022-09-09T01:26:46;3.3;;;6.7;;
74483;SDS011;62942;52.462;10.846;2022-09-09T01:27:46;3.3;;;5.8;;
74483;SDS011;62942;52.462;10.846;2022-09-09T01:28:56;3.2;;;6.4;;
74483;SDS011;62942;52.462;10.846;2022-09-09T01:29:56;3.2;;;6.3;;
74483;SDS011;62942;52.462;10.846;2022-09-09T01:30:56;2.9;;;5.6;;
74483;SDS011;62942;52.462;10.846;2022-09-09T01:32:37;3.1;;;5;;
74483;SDS011;62942;52.462;10.846;2022-09-09T01:33:16;3.1;;;5.6;;
74483;SDS011;62942;52.462;10.846;2022-09-09T01:34:26;2.9;;;6.1;;
74483;SDS011;62942;52.462;10.846;2022-09-09T01:35:37;3.1;;;4.9;;
74483;SDS011;62942;52.462;10.846;2022-09-09T01:36:47;2.8;;;6.1;;
74483;SDS011;62942;52.462;10.846;2022-09-09T01:37:56;2.8;;;5.3;;
74483;SDS011;62942;52.462;10.846;2022-09-09T01:38:56;2.9;;;6.3;;
74483;SDS011;62942;52.462;10.846;2022-09-09T01:40:06;2.9;;;5.5;;
74483;SDS011;62942;52.462;10.846;2022-09-09T01:41:16;2.9;;;5.8;;
74483;SDS011;62942;52.462;10.846;2022-09-09T01:42:26;2.5;;;5.2;;
74483;SDS011;62942;52.462;10.846;2022-09-09T01:43:36;2.9;;;6;;
74483;SDS011;62942;52.462;10.846;2022-09-09T01:44:46;2.5;;;5.9;;
74483;SDS011;62942;52.462;10.846;2022-09-09T01:45:56;2.4;;;4.8;;
74483;SDS011;62942;52.462;10.846;2022-09-09T01:47:06;2.5;;;5;;
74483;SDS011;62942;52.462;10.846;2022-09-09T01:48:06;2.3;;;5.1;;
74483;SDS011;62942;52.462;10.846;2022-09-09T01:49:16;2.4;;;3.9;;
74483;SDS011;62942;52.462;10.846;2022-09-09T01:50:26;2.3;;;4.6;;
74483;SDS011;62942;52.462;10.846;2022-09-09T01:51:36;2.4;;;4.6;;
74483;SDS011;62942;52.462;10.846;2022-09-09T01:52:46;2.4;;;5.1;;
74483;SDS011;62942;52.462;10.846;2022-09-09T01:53:46;2.4;;;5.3;;
74483;SDS011;62942;52.462;10.846;2022-09-09T01:54:56;2.4;;;6.1;;
74483;SDS011;62942;52.462;10.846;2022-09-09T01:55:58;2.4;;;6.4;;
74483;SDS011;62942;52.462;10.846;2022-09-09T01:57:06;2.2;;;4.7;;
74483;SDS011;62942;52.462;10.846;2022-09-09T01:58:10;2.4;;;5;;
74483;SDS011;62942;52.462;10.846;2022-09-09T01:59:49;2.2;;;7.8;;
74483;SDS011;62942;52.462;10.846;2022-09-09T02:00:26;2.1;;;5.5;;
74483;SDS011;62942;52.462;10.846;2022-09-09T02:01:40;2.1;;;4.8;;
74483;SDS011;62942;52.462;10.846;2022-09-09T02:02:36;2.1;;;4.6;;
74483;SDS011;62942;52.462;10.846;2022-09-09T02:03:47;1.9;;;3.5;;
74483;SDS011;62942;52.462;10.846;2022-09-09T02:04:57;2.1;;;5.3;;
74483;SDS011;62942;52.462;10.846;2022-09-09T02:05:59;2;;;3.9;;
74483;SDS011;62942;52.462;10.846;2022-09-09T02:07:08;2;;;5.1;;
74483;SDS011;62942;52.462;10.846;2022-09-09T02:08:06;1.9;;;5.1;;
74483;SDS011;62942;52.462;10.846;2022-09-09T02:09:16;2.1;;;5;;
74483;SDS011;62942;52.462;10.846;2022-09-09T02:10:30;2;;;4.2;;
74483;SDS011;62942;52.462;10.846;2022-09-09T02:11:36;2.1;;;4.2;;
74483;SDS011;62942;52.462;10.846;2022-09-09T02:12:36;2;;;4.7;;
74483;SDS011;62942;52.462;10.846;2022-09-09T02:13:46;2.1;;;4;;
74483;SDS011;62942;52.462;10.846;2022-09-09T02:14:47;2.1;;;4.7;;
74483;SDS011;62942;52.462;10.846;2022-09-09T02:15:56;2.2;;;5.5;;
74483;SDS011;62942;52.462;10.846;2022-09-09T02:16:56;2;;;3.8;;
74483;SDS011;62942;52.462;10.846;2022-09-09T02:17:56;2.2;;;6.1;;
74483;SDS011;62942;52.462;10.846;2022-09-09T02:19:06;2.3;;;5.3;;
74483;SDS011;62942;52.462;10.846;2022-09-09T02:20:17;2.3;;;4.3;;
74483;SDS011;62942;52.462;10.846;2022-09-09T02:21:26;2.2;;;4;;
74483;SDS011;62942;52.462;10.846;2022-09-09T02:22:36;2.2;;;5.4;;
74483;SDS011;62942;52.462;10.846;2022-09-09T02:23:47;2.2;;;4.5;;
74483;SDS011;62942;52.462;10.846;2022-09-09T02:24:46;2.3;;;5.4;;
74483;SDS011;62942;52.462;10.846;2022-09-09T02:25:56;2.5;;;5.9;;
74483;SDS011;62942;52.462;10.846;2022-09-09T02:26:56;2.1;;;5;;
74483;SDS011;62942;52.462;10.846;2022-09-09T02:28:06;2.2;;;4.1;;
74483;SDS011;62942;52.462;10.846;2022-09-09T02:29:07;2.2;;;4.1;;
74483;SDS011;62942;52.462;10.846;2022-09-09T02:30:16;2.4;;;4.5;;
74483;SDS011;62942;52.462;10.846;2022-09-09T02:31:25;2.4;;;5.2;;
74483;SDS011;62942;52.462;10.846;2022-09-09T02:32:26;2.6;;;6.2;;
74483;SDS011;62942;52.462;10.846;2022-09-09T02:33:37;2.2;;;4.4;;
74483;SDS011;62942;52.462;10.846;2022-09-09T02:34:36;2.4;;;5.3;;
74483;SDS011;62942;52.462;10.846;2022-09-09T02:35:45;2.2;;;4.6;;
74483;SDS011;62942;52.462;10.846;2022-09-09T02:36:56;2.5;;;5.4;;
74483;SDS011;62942;52.462;10.846;2022-09-09T02:38:07;2.4;;;5.3;;
74483;SDS011;62942;52.462;10.846;2022-09-09T02:39:16;2.3;;;4.5;;
74483;SDS011;62942;52.462;10.846;2022-09-09T02:40:25;2.2;;;5.4;;
74483;SDS011;62942;52.462;10.846;2022-09-09T02:41:27;2.4;;;4.3;;
74483;SDS011;62942;52.462;10.846;2022-09-09T02:42:38;2.3;;;6;;
74483;SDS011;62942;52.462;10.846;2022-09-09T02:43:36;2.3;;;4.7;;
74483;SDS011;62942;52.462;10.846;2022-09-09T02:44:46;2.2;;;4.8;;
74483;SDS011;62942;52.462;10.846;2022-09-09T02:45:57;2.3;;;6.6;;
74483;SDS011;62942;52.462;10.846;2022-09-09T02:47:09;2.2;;;5.3;;
74483;SDS011;62942;52.462;10.846;2022-09-09T02:48:07;2.2;;;5.1;;
74483;SDS011;62942;52.462;10.846;2022-09-09T02:49:16;2;;;6;;
74483;SDS011;62942;52.462;10.846;2022-09-09T02:50:26;2.1;;;4.7;;
74483;SDS011;62942;52.462;10.846;2022-09-09T02:51:37;2;;;4.6;;
74483;SDS011;62942;52.462;10.846;2022-09-09T02:52:47;2.3;;;5.4;;
74483;SDS011;62942;52.462;10.846;2022-09-09T02:53:57;2;;;4;;
74483;SDS011;62942;52.462;10.846;2022-09-09T02:55:07;2.2;;;6.4;;
74483;SDS011;62942;52.462;10.846;2022-09-09T02:56:16;2.1;;;5.8;;
74483;SDS011;62942;52.462;10.846;2022-09-09T02:57:26;2;;;6.2;;
74483;SDS011;62942;52.462;10.846;2022-09-09T02:58:36;2;;;5.7;;
74483;SDS011;62942;52.462;10.846;2022-09-09T02:59:46;2;;;5;;
74483;SDS011;62942;52.462;10.846;2022-09-09T03:00:56;1.9;;;4.4;;
74483;SDS011;62942;52.462;10.846;2022-09-09T03:02:06;1.8;;;4.7;;
74483;SDS011;62942;52.462;10.846;2022-09-09T03:03:06;2.1;;;5.4;;
74483;SDS011;62942;52.462;10.846;2022-09-09T03:04:15;2;;;4.5;;
74483;SDS011;62942;52.462;10.846;2022-09-09T03:05:16;2.1;;;6.4;;
74483;SDS011;62942;52.462;10.846;2022-09-09T03:06:25;2.1;;;5.3;;
74483;SDS011;62942;52.462;10.846;2022-09-09T03:07:35;1.9;;;5.8;;
74483;SDS011;62942;52.462;10.846;2022-09-09T03:08:35;2;;;5.7;;
74483;SDS011;62942;52.462;10.846;2022-09-09T03:09:45;2;;;4.9;;
74483;SDS011;62942;52.462;10.846;2022-09-09T03:10:57;2.2;;;5.4;;
74483;SDS011;62942;52.462;10.846;2022-09-09T03:12:05;2.2;;;5.3;;
74483;SDS011;62942;52.462;10.846;2022-09-09T03:13:05;2;;;6.1;;
74483;SDS011;62942;52.462;10.846;2022-09-09T03:14:05;2.4;;;5.5;;
74483;SDS011;62942;52.462;10.846;2022-09-09T03:15:16;2.3;;;4.8;;
74483;SDS011;62942;52.462;10.846;2022-09-09T03:16:15;2.1;;;4.3;;
74483;SDS011;62942;52.462;10.846;2022-09-09T03:17:25;2.1;;;4.6;;
74483;SDS011;62942;52.462;10.846;2022-09-09T03:18:35;2.3;;;5.4;;
74483;SDS011;62942;52.462;10.846;2022-09-09T03:19:45;2.2;;;4.8;;
74483;SDS011;62942;52.462;10.846;2022-09-09T03:20:55;2.1;;;5.3;;
74483;SDS011;62942;52.462;10.846;2022-09-09T03:22:05;2.3;;;6.3;;
74483;SDS011;62942;52.462;10.846;2022-09-09T03:23:05;2.2;;;6.5;;
74483;SDS011;62942;52.462;10.846;2022-09-09T03:24:15;1.9;;;4.6;;
74483;SDS011;62942;52.462;10.846;2022-09-09T03:25:15;2.1;;;6.7;;
74483;SDS011;62942;52.462;10.846;2022-09-09T03:26:15;2.1;;;5.6;;
74483;SDS011;62942;52.462;10.846;2022-09-09T03:27:25;2.3;;;5.7;;
74483;SDS011;62942;52.462;10.846;2022-09-09T03:28:35;2.1;;;5.7;;
74483;SDS011;62942;52.462;10.846;2022-09-09T03:29:45;2.1;;;5.5;;
74483;SDS011;62942;52.462;10.846;2022-09-09T03:30:45;2.2;;;5.1;;
74483;SDS011;62942;52.462;10.846;2022-09-09T03:31:55;2.4;;;6;;
74483;SDS011;62942;52.462;10.846;2022-09-09T03:33:05;2.2;;;6.2;;
74483;SDS011;62942;52.462;10.846;2022-09-09T03:34:15;2.2;;;4.1;;
74483;SDS011;62942;52.462;10.846;2022-09-09T03:35:25;2.2;;;5.1;;
74483;SDS011;62942;52.462;10.846;2022-09-09T03:36:36;2.5;;;7.8;;
74483;SDS011;62942;52.462;10.846;2022-09-09T03:37:35;2.5;;;6.1;;
74483;SDS011;62942;52.462;10.846;2022-09-09T03:38:45;2.6;;;7;;
74483;SDS011;62942;52.462;10.846;2022-09-09T03:39:45;2.7;;;6.6;;
74483;SDS011;62942;52.462;10.846;2022-09-09T03:40:56;2.9;;;6.5;;
74483;SDS011;62942;52.462;10.846;2022-09-09T03:41:55;2.6;;;5.8;;
74483;SDS011;62942;52.462;10.846;2022-09-09T03:43:06;2.6;;;6.3;;
74483;SDS011;62942;52.462;10.846;2022-09-09T03:44:05;2.6;;;6;;
74483;SDS011;62942;52.462;10.846;2022-09-09T03:45:15;2.8;;;6.3;;
74483;SDS011;62942;52.462;10.846;2022-09-09T03:46:15;2.7;;;7.1;;
74483;SDS011;62942;52.462;10.846;2022-09-09T03:47:25;2.6;;;6.9;;
74483;SDS011;62942;52.462;10.846;2022-09-09T03:48:35;2.6;;;6.4;;
74483;SDS011;62942;52.462;10.846;2022-09-09T03:49:35;2.7;;;6.7;;
74483;SDS011;62942;52.462;10.846;2022-09-09T03:50:46;2.8;;;5.3;;
74483;SDS011;62942;52.462;10.846;2022-09-09T03:51:45;2.6;;;7.1;;
74483;SDS011;62942;52.462;10.846;2022-09-09T03:52:55;2.7;;;6.8;;
74483;SDS011;62942;52.462;10.846;2022-09-09T03:53:56;2.7;;;4.8;;
74483;SDS011;62942;52.462;10.846;2022-09-09T03:55:06;2.7;;;6.9;;
74483;SDS011;62942;52.462;10.846;2022-09-09T03:56:15;2.9;;;7.8;;
74483;SDS011;62942;52.462;10.846;2022-09-09T03:57:25;2.9;;;6.4;;
74483;SDS011;62942;52.462;10.846;2022-09-09T03:58:26;2.7;;;6;;
74483;SDS011;62942;52.462;10.846;2022-09-09T03:59:35;3.1;;;6.7;;
74483;SDS011;62942;52.462;10.846;2022-09-09T04:00:35;3;;;5.4;;
74483;SDS011;62942;52.462;10.846;2022-09-09T04:01:45;2.9;;;6.7;;
74483;SDS011;62942;52.462;10.846;2022-09-09T04:02:55;3;;;6.5;;
74483;SDS011;62942;52.462;10.846;2022-09-09T04:04:05;3;;;6.1;;
74483;SDS011;62942;52.462;10.846;2022-09-09T04:05:15;3.3;;;7.5;;
74483;SDS011;62942;52.462;10.846;2022-09-09T04:06:25;2.9;;;6.7;;
74483;SDS011;62942;52.462;10.846;2022-09-09T04:07:35;3;;;6.4;;
74483;SDS011;62942;52.462;10.846;2022-09-09T04:08:45;2.9;;;6.5;;
74483;SDS011;62942;52.462;10.846;2022-09-09T04:09:45;3;;;7.3;;
74483;SDS011;62942;52.462;10.846;2022-09-09T04:10:55;2.9;;;6.6;;
74483;SDS011;62942;52.462;10.846;2022-09-09T04:11:55;3.1;;;6.5;;
74483;SDS011;62942;52.462;10.846;2022-09-09T04:13:05;3.2;;;7.8;;
74483;SDS011;62942;52.462;10.846;2022-09-09T04:14:06;3;;;8.2;;
74483;SDS011;62942;52.462;10.846;2022-09-09T04:15:15;2.9;;;5.8;;
74483;SDS011;62942;52.462;10.846;2022-09-09T04:16:15;2.9;;;6.5;;
74483;SDS011;62942;52.462;10.846;2022-09-09T04:17:25;2.8;;;5.9;;
74483;SDS011;62942;52.462;10.846;2022-09-09T04:18:26;2.9;;;7.1;;
74483;SDS011;62942;52.462;10.846;2022-09-09T04:19:35;3;;;7.6;;
74483;SDS011;62942;52.462;10.846;2022-09-09T04:20:35;2.8;;;7.4;;
74483;SDS011;62942;52.462;10.846;2022-09-09T04:21:45;2.8;;;6.1;;
74483;SDS011;62942;52.462;10.846;2022-09-09T04:22:55;2.8;;;6.4;;
74483;SDS011;62942;52.462;10.846;2022-09-09T04:24:06;2.8;;;5.9;;
74483;SDS011;62942;52.462;10.846;2022-09-09T04:25:06;2.7;;;6.5;;
74483;SDS011;62942;52.462;10.846;2022-09-09T04:26:15;2.9;;;6.8;;
74483;SDS011;62942;52.462;10.846;2022-09-09T04:27:25;2.8;;;5.7;;
74483;SDS011;62942;52.462;10.846;2022-09-09T04:28:26;2.9;;;6.5;;
74483;SDS011;62942;52.462;10.846;2022-09-09T04:29:35;2.9;;;8.1;;
74483;SDS011;62942;52.462;10.846;2022-09-09T04:30:45;3;;;6.2;;
74483;SDS011;62942;52.462;10.846;2022-09-09T04:31:55;3.3;;;5.9;;
74483;SDS011;62942;52.462;10.846;2022-09-09T04:32:56;3.3;;;7.6;;
74483;SDS011;62942;52.462;10.846;2022-09-09T04:34:06;3.1;;;6.6;;
74483;SDS011;62942;52.462;10.846;2022-09-09T04:35:05;3.2;;;5;;
74483;SDS011;62942;52.462;10.846;2022-09-09T04:36:16;3.1;;;5.4;;
74483;SDS011;62942;52.462;10.846;2022-09-09T04:37:15;3.1;;;6.1;;
74483;SDS011;62942;52.462;10.846;2022-09-09T04:38:25;3.2;;;6.3;;
74483;SDS011;62942;52.462;10.846;2022-09-09T04:39:35;3.1;;;6.4;;
74483;SDS011;62942;52.462;10.846;2022-09-09T04:40:46;3.2;;;5.8;;
74483;SDS011;62942;52.462;10.846;2022-09-09T04:41:45;3.3;;;6.2;;
74483;SDS011;62942;52.462;10.846;2022-09-09T04:42:57;3.1;;;4.9;;
74483;SDS011;62942;52.462;10.846;2022-09-09T04:43:55;3.2;;;6.1;;
74483;SDS011;62942;52.462;10.846;2022-09-09T04:45:06;3.4;;;6.1;;
74483;SDS011;62942;52.462;10.846;2022-09-09T04:46:15;3.2;;;9;;
74483;SDS011;62942;52.462;10.846;2022-09-09T04:47:25;3.4;;;7.2;;
74483;SDS011;62942;52.462;10.846;2022-09-09T04:48:35;3.2;;;6.2;;
74483;SDS011;62942;52.462;10.846;2022-09-09T04:49:45;3.3;;;6.5;;
74483;SDS011;62942;52.462;10.846;2022-09-09T04:50:53;3.1;;;5.4;;
74483;SDS011;62942;52.462;10.846;2022-09-09T04:51:55;3.2;;;7.7;;
74483;SDS011;62942;52.462;10.846;2022-09-09T04:53:06;3.3;;;6.8;;
74483;SDS011;62942;52.462;10.846;2022-09-09T04:54:15;3.1;;;5;;
74483;SDS011;62942;52.462;10.846;2022-09-09T04:55:15;3.2;;;5.6;;
74483;SDS011;62942;52.462;10.846;2022-09-09T04:56:25;3.3;;;6.5;;
74483;SDS011;62942;52.462;10.846;2022-09-09T04:57:35;3.2;;;7.1;;
74483;SDS011;62942;52.462;10.846;2022-09-09T04:58:35;3.5;;;5.9;;
74483;SDS011;62942;52.462;10.846;2022-09-09T04:59:45;3.5;;;7.5;;
74483;SDS011;62942;52.462;10.846;2022-09-09T05:00:45;3.5;;;7.7;;
74483;SDS011;62942;52.462;10.846;2022-09-09T05:01:55;3.6;;;7.7;;
74483;SDS011;62942;52.462;10.846;2022-09-09T05:02:55;3.6;;;7;;
74483;SDS011;62942;52.462;10.846;2022-09-09T05:04:05;3.5;;;6.8;;
74483;SDS011;62942;52.462;10.846;2022-09-09T05:05:06;3.7;;;8.5;;
74483;SDS011;62942;52.462;10.846;2022-09-09T05:06:16;3.9;;;7.8;;
74483;SDS011;62942;52.462;10.846;2022-09-09T05:07:15;3.7;;;7.2;;
74483;SDS011;62942;52.462;10.846;2022-09-09T05:08:25;3.9;;;7.9;;
74483;SDS011;62942;52.462;10.846;2022-09-09T05:09:26;3.8;;;6.3;;
74483;SDS011;62942;52.462;10.846;2022-09-09T05:10:36;3.9;;;7.6;;
74483;SDS011;62942;52.462;10.846;2022-09-09T05:11:35;3.4;;;8.1;;
74483;SDS011;62942;52.462;10.846;2022-09-09T05:12:51;3.7;;;7.6;;
74483;SDS011;62942;52.462;10.846;2022-09-09T05:13:55;3.5;;;7.6;;
74483;SDS011;62942;52.462;10.846;2022-09-09T05:14:55;3.4;;;7.7;;
74483;SDS011;62942;52.462;10.846;2022-09-09T05:16:05;3.4;;;7.2;;
74483;SDS011;62942;52.462;10.846;2022-09-09T05:17:15;3.2;;;7.2;;
74483;SDS011;62942;52.462;10.846;2022-09-09T05:18:15;3.1;;;8.4;;
74483;SDS011;62942;52.462;10.846;2022-09-09T05:19:25;3;;;6.3;;
74483;SDS011;62942;52.462;10.846;2022-09-09T05:20:25;3.2;;;7.3;;
74483;SDS011;62942;52.462;10.846;2022-09-09T05:21:35;3.4;;;7;;
74483;SDS011;62942;52.462;10.846;2022-09-09T05:22:35;3.2;;;5.6;;
74483;SDS011;62942;52.462;10.846;2022-09-09T05:23:45;3.3;;;7.7;;
74483;SDS011;62942;52.462;10.846;2022-09-09T05:24:45;3.2;;;6.6;;
74483;SDS011;62942;52.462;10.846;2022-09-09T05:25:56;3.2;;;6.7;;
74483;SDS011;62942;52.462;10.846;2022-09-09T05:26:55;3.1;;;6.3;;
74483;SDS011;62942;52.462;10.846;2022-09-09T05:28:05;3.2;;;7.7;;
74483;SDS011;62942;52.462;10.846;2022-09-09T05:29:05;3.2;;;6;;
74483;SDS011;62942;52.462;10.846;2022-09-09T05:30:15;3.3;;;6.2;;
74483;SDS011;62942;52.462;10.846;2022-09-09T05:31:25;3.2;;;6.1;;
74483;SDS011;62942;52.462;10.846;2022-09-09T05:32:35;3.2;;;6.9;;
74483;SDS011;62942;52.462;10.846;2022-09-09T05:33:35;3.1;;;5.3;;
74483;SDS011;62942;52.462;10.846;2022-09-09T05:34:45;3.4;;;7.6;;
74483;SDS011;62942;52.462;10.846;2022-09-09T05:35:56;3.2;;;6.3;;
74483;SDS011;62942;52.462;10.846;2022-09-09T05:37:05;3.1;;;5.4;;
74483;SDS011;62942;52.462;10.846;2022-09-09T05:38:15;2.9;;;6;;
74483;SDS011;62942;52.462;10.846;2022-09-09T05:39:25;3.1;;;6.8;;
74483;SDS011;62942;52.462;10.846;2022-09-09T05:40:25;3;;;6;;
74483;SDS011;62942;52.462;10.846;2022-09-09T05:41:35;3.1;;;8.1;;
74483;SDS011;62942;52.462;10.846;2022-09-09T05:42:45;3;;;6.1;;
74483;SDS011;62942;52.462;10.846;2022-09-09T05:43:55;3;;;6.3;;
74483;SDS011;62942;52.462;10.846;2022-09-09T05:44:55;3;;;6.6;;
74483;SDS011;62942;52.462;10.846;2022-09-09T05:46:06;2.9;;;7.7;;
74483;SDS011;62942;52.462;10.846;2022-09-09T05:47:15;3;;;5.6;;
74483;SDS011;62942;52.462;10.846;2022-09-09T05:48:15;2.9;;;5.9;;
74483;SDS011;62942;52.462;10.846;2022-09-09T05:49:15;3.6;;;7;;
74483;SDS011;62942;52.462;10.846;2022-09-09T05:50:25;3.6;;;7.7;;
74483;SDS011;62942;52.462;10.846;2022-09-09T05:51:26;3.1;;;7.1;;
74483;SDS011;62942;52.462;10.846;2022-09-09T05:52:35;3.1;;;7.1;;
74483;SDS011;62942;52.462;10.846;2022-09-09T05:53:45;2.7;;;6.5;;
74483;SDS011;62942;52.462;10.846;2022-09-09T05:54:55;2.7;;;6.1;;
74483;SDS011;62942;52.462;10.846;2022-09-09T05:56:06;2.4;;;5.5;;
74483;SDS011;62942;52.462;10.846;2022-09-09T05:57:05;2.8;;;6.1;;
74483;SDS011;62942;52.462;10.846;2022-09-09T05:58:15;2.7;;;6;;
74483;SDS011;62942;52.462;10.846;2022-09-09T05:59:25;2.5;;;7.8;;
74483;SDS011;62942;52.462;10.846;2022-09-09T06:00:35;2.4;;;4.4;;
74483;SDS011;62942;52.462;10.846;2022-09-09T06:01:45;2.3;;;6;;
74483;SDS011;62942;52.462;10.846;2022-09-09T06:02:55;2.5;;;6.2;;
74483;SDS011;62942;52.462;10.846;2022-09-09T06:04:05;2.4;;;5.5;;
74483;SDS011;62942;52.462;10.846;2022-09-09T06:05:15;2.3;;;6.8;;
74483;SDS011;62942;52.462;10.846;2022-09-09T06:06:26;2.3;;;8;;
74483;SDS011;62942;52.462;10.846;2022-09-09T06:07:25;1.9;;;3.9;;
74483;SDS011;62942;52.462;10.846;2022-09-09T06:08:36;2.4;;;5.6;;
74483;SDS011;62942;52.462;10.846;2022-09-09T06:09:35;2.4;;;5.4;;
74483;SDS011;62942;52.462;10.846;2022-09-09T06:10:45;2.3;;;6.4;;
74483;SDS011;62942;52.462;10.846;2022-09-09T06:11:45;2.4;;;9.3;;
74483;SDS011;62942;52.462;10.846;2022-09-09T06:12:55;2.2;;;5;;
74483;SDS011;62942;52.462;10.846;2022-09-09T06:13:55;2.3;;;5.8;;
74483;SDS011;62942;52.462;10.846;2022-09-09T06:15:05;2.3;;;7.6;;
74483;SDS011;62942;52.462;10.846;2022-09-09T06:16:05;2.3;;;5.5;;
74483;SDS011;62942;52.462;10.846;2022-09-09T06:17:15;2.4;;;6.5;;
74483;SDS011;62942;52.462;10.846;2022-09-09T06:18:25;2.5;;;7.5;;
74483;SDS011;62942;52.462;10.846;2022-09-09T06:19:35;2.5;;;6.6;;
74483;SDS011;62942;52.462;10.846;2022-09-09T06:20:35;2.6;;;8.4;;
74483;SDS011;62942;52.462;10.846;2022-09-09T06:21:45;2.2;;;5.9;;
74483;SDS011;62942;52.462;10.846;2022-09-09T06:22:55;2.3;;;5.5;;
74483;SDS011;62942;52.462;10.846;2022-09-09T06:24:05;2.4;;;7.2;;
74483;SDS011;62942;52.462;10.846;2022-09-09T06:25:15;2.5;;;6.8;;
74483;SDS011;62942;52.462;10.846;2022-09-09T06:26:26;2.3;;;5.4;;
74483;SDS011;62942;52.462;10.846;2022-09-09T06:27:26;2.3;;;7.6;;
74483;SDS011;62942;52.462;10.846;2022-09-09T06:28:35;2.1;;;6.6;;
74483;SDS011;62942;52.462;10.846;2022-09-09T06:29:35;2.5;;;6;;
74483;SDS011;62942;52.462;10.846;2022-09-09T06:30:45;2.3;;;5.4;;
74483;SDS011;62942;52.462;10.846;2022-09-09T06:31:45;2.1;;;6.4;;
74483;SDS011;62942;52.462;10.846;2022-09-09T06:32:45;2.1;;;6.8;;
74483;SDS011;62942;52.462;10.846;2022-09-09T06:33:56;2.6;;;7.2;;
74483;SDS011;62942;52.462;10.846;2022-09-09T06:34:55;2.1;;;9.1;;
74483;SDS011;62942;52.462;10.846;2022-09-09T06:35:55;1.8;;;4.6;;
74483;SDS011;62942;52.462;10.846;2022-09-09T06:36:55;1.9;;;7;;
74483;SDS011;62942;52.462;10.846;2022-09-09T06:38:05;2.2;;;5.9;;
74483;SDS011;62942;52.462;10.846;2022-09-09T06:39:15;1.8;;;6.1;;
74483;SDS011;62942;52.462;10.846;2022-09-09T06:40:25;1.8;;;4.8;;
74483;SDS011;62942;52.462;10.846;2022-09-09T06:41:35;1.9;;;5.5;;
74483;SDS011;62942;52.462;10.846;2022-09-09T06:42:45;1.8;;;6.1;;
74483;SDS011;62942;52.462;10.846;2022-09-09T06:43:55;1.8;;;6.7;;
74483;SDS011;62942;52.462;10.846;2022-09-09T06:45:05;1.7;;;6.5;;
74483;SDS011;62942;52.462;10.846;2022-09-09T06:46:16;1.7;;;6.1;;
74483;SDS011;62942;52.462;10.846;2022-09-09T06:47:15;1.8;;;7.7;;
74483;SDS011;62942;52.462;10.846;2022-09-09T06:48:25;1.4;;;5.7;;
74483;SDS011;62942;52.462;10.846;2022-09-09T06:49:35;1.6;;;5.9;;